Aeroporto :
LOGIN :

Iscrizione | Disclaimer

   EN    FR    IT 

 










Sommario :    VFR   VFR Marginale   IFR   IFR Intensivo   IFR Molto Intensivo
Visibilità : 
Base nubi : 
>= 8 km
>= 3000ft
5 / 8 km
1000 / 3000 ft
1500m / 5 km
500 / 1000 ft
800 / 1500m
200 / 500 ft
< 800m
< 200 ft
Simboli :   Temporali  Nebbia  Neve Forte  Precipitazioni Forti  Vento > 20 kt
SIGMETs :   Varie  Temporali  Ghiacco  Turbolenza  Onda orograficha  Ceneri Vulcaniche






- Altitudine del aeroporto : 220 ft
- Codice IATA : CWL


EGFF - Cardiff Rhoose

ULTIMO METAR :
  • 092050Z AUTO 31003KT 9999 NCD 05/02 Q1025

METARs OBSOLETI :
  • 092020Z AUTO 32004KT 9999 NCD 05/02 Q1024
  • 091950Z AUTO 31005KT 9999 NCD 04/01 Q1025
  • 091920Z AUTO 29007KT 9999 NCD 05/01 Q1024
  • 091850Z AUTO 29006KT 9999 NCD 05/01 Q1024
  • 091820Z AUTO 30009KT 9999 NCD 04/01 Q1024

TAF TAF EGFF
Valido dal 09 a 18 ore il 10 a 18 ore UTC


091703Z 0918/1018 30010KT 9999 FEW030
BECMG 0918/0921 VRB03KT
BECMG 1000/1003 18010KT
PROB30
TEMPO 1003/1007 19016G26KT
BECMG 1007/1010 19020KT
TEMPO 1009/1015 20023G35KT 8000 RA BKN014
PROB40
TEMPO 1014/1016 20030G45KT 1400 +RA BKN009
BECMG 1015/1017 27023G35KT
TEMPO 1015/1018 8000 RA
ATIS : +44 1446 729 319



MetMap, La meteo Aeronautica in un colpo d'occhio ! - Copyright ORBIFLY Dicembre 2007 - Disclaimer

ORBIFLY MET'MAP TEAM :

Programmazione e sviluppo : Alexandra Zaïnal
Concezione : Baudouin d'Aumeries
Aiuto per la programmazione : Marc-Olivier Méhu
Supporto tecnico e logistico : Manuel Goepfert
Aiuto per la traduzione : Arnaldo La Scala

Contatto : metmap@orbifly.com




FONTI E CREDITI :

   NOAA